Terminal Aerodrome Forecast
Issued by NWS

Home | Current Version | Previous Version | Text Only | Print | Product List | Glossary On
Versions: 1 2 3 4 5 6 7 8 9 10 11 12 13 14 15 16 17 18 19 20 21 22 23
000
FTUS43 KGRR 041917 AAA
TAFMKG
TAF AMD
KMKG 041917Z 0419/0518 25006KT P6SM BKN006
     FM042100 26005KT P6SM BKN019
     FM042200 27007KT P6SM VCSH BKN025
     FM050000 VRB02KT P6SM SCT050
     FM050500 VRB02KT 3SM BR SCT020
     FM051000 00000KT 2SM BR SCT008
     FM051400 19006KT 6SM HZ SCT015=

USA.gov is the U.S. government's official web portal to all federal, state and local government web resources and services.